Terminal Aerodrome Forecast
Issued by NWS Binghamton, NY

Home | Current Version | Previous Version | Text Only | Print | Product List | Glossary On
Versions: 1 2 3 4 5 6 7 8 9 10 11 12 13 14 15 16 17 18
258
FTUS41 KBGM 232047 AAA
TAFSYR
TAF AMD
KSYR 232047Z 2321/2418 25015G30KT P6SM -SHRA BKN080
      TEMPO 2405/2407 4SM -SHSN OVC025
     FM240700 27012G24KT 4SM -SHSN OVC025
      TEMPO 2407/2411 2SM -SHSN OVC012
     FM241700 30010KT P6SM -SHSN BKN025=

USA.gov is the U.S. government's official web portal to all federal, state and local government web resources and services.